Latest Weather Observations for Mount Boyce

IDN60901

Issued at 7:41 am EST Wednesday 27 July 2016 (issued every 10 minutes, with the page automatically refreshed every 10 minutes)

About weather observations | Map of Sydney area stations | Latest observations for Sydney area | Other Formats
Station Details ID: 063292 Name: MOUNT BOYCE AWS Lat: -33.62 Lon: 150.27 Height: 1080.0 m
Data from the previous 72 hours. | See also: Recent months at Mount Boyce
Date/Time
EST
Temp
°C
App
Temp
°C
Dew
Point
°C
Rel
Hum
%
Delta-T
°C
Wind Press
QNH
hPa
Press
MSL
hPa
Rain since
9am
mm
Dir  Spd
km/h
Gust
km/h
Spd
kts
Gust
kts
27/07:30am 4.3 -3.3 2.7 89 0.7 W 32 57 17 31 - - 0.2
27/07:12am 4.4 -3.3 2.4 87 0.9 W 32 50 17 27 - - 0.2
27/07:10am 4.4 -3.5 2.4 87 0.9 W 33 50 18 27 - - 0.2
27/07:00am 4.5 -3.8 2.2 85 1.0 WNW 35 63 19 34 - - 0.2
27/06:47am 4.3 -3.4 2.2 86 0.9 W 32 59 17 32 - - 0.2
27/06:30am 4.3 -3.1 2.0 85 1.0 W 30 54 16 29 - - 0.2
27/06:10am 4.4 -3.3 2.3 86 0.9 W 32 50 17 27 - - 0.2
27/06:00am 4.4 -3.3 2.1 85 1.0 W 32 44 17 24 - - 0.2
27/05:30am 4.4 -3.3 2.1 85 1.0 W 32 46 17 25 - - 0.2
27/05:00am 4.0 -3.9 2.2 88 0.8 W 33 54 18 29 - - 0.2
27/04:40am 3.5 -3.9 2.0 90 0.6 W 30 48 16 26 - - 0.2
27/04:30am 3.5 -4.2 2.2 91 0.6 W 32 44 17 24 - - 0.2
27/04:25am 3.5 -4.4 2.0 90 0.6 W 33 59 18 32 - - 0.2
27/04:00am 3.5 -5.6 2.0 90 0.6 W 39 59 21 32 - - 0.2
27/03:56am 3.4 -5.7 2.1 91 0.6 W 39 57 21 31 - - 0.2
27/03:37am 3.7 -5.4 1.9 88 0.8 W 39 57 21 31 - - 0.0
27/03:30am 4.8 -4.4 1.5 79 1.4 W 39 63 21 34 - - 0.0
27/03:00am 4.7 -3.5 0.3 73 1.8 W 33 56 18 30 - - 0.0
27/02:30am 4.5 -3.5 0.3 74 1.7 W 32 52 17 28 - - 0.0
27/02:00am 3.1 -4.4 1.0 86 0.9 W 30 50 16 27 - - 0.0
27/01:34am 3.1 -6.4 1.5 89 0.7 W 41 69 22 37 - - 0.0
27/01:30am 3.1 -6.0 1.8 91 0.5 WSW 39 69 21 37 - - 0.0
27/01:17am 4.0 -3.3 2.2 88 0.8 W 30 52 16 28 - - 0.0
27/01:13am 4.1 -2.9 2.1 87 0.9 W 28 44 15 24 - - 0.0
27/01:00am 4.2 -3.7 2.1 86 0.9 W 33 52 18 28 - - 0.0
27/12:48am 4.1 -3.3 2.1 87 0.9 WSW 30 48 16 26 - - 0.0
27/12:47am 4.1 -3.6 2.1 87 0.9 W 32 48 17 26 - - 0.0
27/12:30am 4.2 -3.8 1.9 85 1.0 W 33 54 18 29 - - 0.0
27/12:00am 4.1 -3.9 1.5 83 1.1 W 33 54 18 29 - - 0.0
 
Date/Time
EST
Temp
°C
App
Temp
°C
Dew
Point
°C
Rel
Hum
%
Delta-T
°C
Wind Press
QNH
hPa
Press
MSL
hPa
Rain since
9am
mm
Dir  Spd
km/h
Gust
km/h
Spd
kts
Gust
kts
26/11:32pm 4.6 -4.5 1.6 81 1.3 W 39 65 21 35 - - 0.0
26/11:30pm 4.6 -3.8 1.5 80 1.3 W 35 65 19 35 - - 0.0
26/11:17pm 4.7 -2.4 1.6 80 1.3 W 28 52 15 28 - - 0.0
26/11:00pm 4.1 -1.8 1.5 83 1.1 W 22 35 12 19 - - 0.0
26/10:31pm 4.4 -2.6 1.8 83 1.1 W 28 48 15 26 - - 0.0
26/10:30pm 4.4 -2.2 1.8 83 1.1 W 26 44 14 24 - - 0.0
26/10:00pm 4.2 -3.2 2.1 86 0.9 W 30 44 16 24 - - 0.0
26/09:53pm 4.2 -3.7 2.1 86 0.9 W 33 46 18 25 - - 0.0
26/09:37pm 4.2 -3.5 2.1 86 0.9 W 32 50 17 27 - - 0.0
26/09:30pm 4.2 -3.8 1.9 85 1.0 W 33 48 18 26 - - 0.0
26/09:03pm 4.4 -2.9 2.3 86 0.9 W 30 48 16 26 - - 0.0
26/09:00pm 4.4 -2.9 2.3 86 0.9 W 30 48 16 26 - - 0.0
26/08:32pm 4.6 -2.4 2.0 83 1.1 W 28 46 15 25 - - 0.0
26/08:30pm 4.6 -2.0 2.0 83 1.1 W 26 44 14 24 - - 0.0
26/08:00pm 4.8 -2.6 1.7 80 1.3 W 30 44 16 24 - - 0.0
26/07:47pm 4.9 -2.2 1.4 78 1.5 W 28 46 15 25 - - 0.0
26/07:30pm 4.9 -3.0 1.0 76 1.6 W 32 48 17 26 - - 0.0
26/07:00pm 5.0 -2.9 0.9 75 1.7 W 32 52 17 28 - - 0.0
26/06:30pm 5.0 -2.9 0.8 74 1.8 W 32 54 17 29 - - 0.0
26/06:00pm 5.0 -3.6 0.2 71 2.0 W 35 59 19 32 - - 0.0
26/05:30pm 5.2 -2.9 0.8 73 1.8 W 33 54 18 29 - - 0.0
26/05:00pm 5.6 -1.5 1.2 73 1.9 W 28 46 15 25 - - 0.0
26/04:42pm 5.6 -1.5 1.5 75 1.8 W 28 50 15 27 - - 0.0
26/04:30pm 5.7 -1.3 2.0 77 1.6 W 28 37 15 20 - - 0.0
26/04:00pm 6.0 -1.4 2.1 76 1.7 W 30 48 16 26 - - 0.0
26/03:32pm 6.3 -1.5 1.8 73 1.9 W 32 50 17 27 - - 0.0
26/03:30pm 6.3 -1.7 1.8 73 1.9 W 33 50 18 27 - - 0.0
26/03:00pm 7.0 -0.5 1.5 68 2.4 W 30 52 16 28 - - 0.0
26/02:30pm 7.1 -2.5 1.0 65 2.6 W 41 65 22 35 - - 0.0
26/02:00pm 7.4 -3.2 1.0 64 2.7 W 46 70 25 38 - - 0.0
26/01:30pm 7.5 -1.8 0.9 63 2.8 W 39 63 21 34 - - 0.0
26/01:00pm 7.5 -1.0 0.9 63 2.8 W 35 54 19 29 - - 0.0
26/12:30pm 7.0 -1.5 1.1 66 2.5 W 35 57 19 31 - - 0.0
26/12:19pm 7.0 -0.9 1.1 66 2.5 W 32 54 17 29 - - 0.0
26/12:00pm 7.1 0.5 1.8 69 2.3 W 26 43 14 23 - - 0.0
26/11:30am 6.2 -2.2 1.3 71 2.1 W 35 54 19 29 - - 0.0
26/11:00am 5.9 -2.9 1.4 73 1.9 WSW 37 59 20 32 - - 0.0
26/10:33am 5.1 -3.8 0.9 74 1.8 WSW 37 67 20 36 - - 0.0
26/10:30am 5.2 -4.0 1.5 77 1.6 WSW 39 65 21 35 - - 0.0
26/10:00am 4.9 -3.1 1.7 80 1.4 W 33 59 18 32 - - 0.0
26/09:30am 4.2 -5.3 1.7 84 1.1 W 41 63 22 34 - - 0.0
26/09:00am 3.8 -6.6 2.0 88 0.8 W 46 74 25 40 - - 0.0
26/08:30am 3.7 -7.1 1.9 88 0.8 W 48 74 26 40 - - 0.0
26/08:00am 3.4 -7.7 2.2 92 0.5 W 50 72 27 39 - - 0.0
26/07:30am 3.3 -7.5 2.1 92 0.5 W 48 67 26 36 - - 0.0
26/07:00am 3.3 -6.7 2.0 91 0.5 W 44 70 24 38 - - 0.0
26/06:35am 3.3 -6.8 1.7 89 0.7 W 44 63 24 34 - - 0.0
26/06:30am 3.3 -7.2 1.7 89 0.7 W 46 63 25 34 - - 0.0
26/06:00am 3.4 -6.5 1.4 87 0.8 W 43 65 23 35 - - 0.0
26/05:30am 3.4 -6.2 1.3 86 0.9 W 41 61 22 33 - - 0.0
26/05:00am 3.3 -6.7 1.0 85 0.9 W 43 65 23 35 - - 0.0
26/04:30am 3.3 -6.9 1.0 85 0.9 W 44 67 24 36 - - 0.0
26/04:00am 3.3 -6.7 1.0 85 0.9 W 43 70 23 38 - - 0.0
26/03:48am 3.3 -7.7 0.7 83 1.1 W 48 69 26 37 - - 0.0
26/03:30am 3.2 -7.1 0.6 83 1.1 W 44 80 24 43 - - 0.0
26/03:00am 3.1 -7.2 0.3 82 1.1 W 44 67 24 36 - - 0.0
26/02:30am 3.4 -7.7 0.3 80 1.3 W 48 76 26 41 - - 0.0
26/02:00am 3.6 -6.5 0.5 80 1.3 W 43 61 23 33 - - 0.0
26/01:30am 3.7 -7.0 0.4 79 1.3 W 46 72 25 39 - - 0.0
26/01:00am 3.7 -6.9 0.6 80 1.3 W 46 72 25 39 - - 0.0
26/12:30am 3.6 -7.8 0.7 81 1.2 W 50 69 27 37 - - 0.0
26/12:00am 3.6 -8.2 0.3 79 1.3 W 52 72 28 39 - - 0.0
 
Date/Time
EST
Temp
°C
App
Temp
°C
Dew
Point
°C
Rel
Hum
%
Delta-T
°C
Wind Press
QNH
hPa
Press
MSL
hPa
Rain since
9am
mm
Dir  Spd
km/h
Gust
km/h
Spd
kts
Gust
kts
25/11:30pm 3.5 -8.7 0.2 79 1.3 W 54 78 29 42 - - 0.0
25/11:08pm 3.4 -8.8 0.3 80 1.3 W 54 76 29 41 - - 0.0
25/11:00pm 3.3 -8.1 0.5 82 1.1 W 50 80 27 43 - - 0.0
25/10:30pm 2.9 -9.3 0.6 85 0.9 W 54 80 29 43 - - 0.0
25/10:00pm 2.7 -8.7 0.6 86 0.9 W 50 80 27 43 - - 0.0
25/09:30pm 2.6 -9.5 0.8 88 0.7 W 54 78 29 42 - - 0.0
25/09:00pm 2.6 -9.5 0.7 87 0.8 W 54 72 29 39 - - 0.0
25/08:30pm 2.6 -8.8 0.8 88 0.7 W 50 74 27 40 - - 0.0
25/08:00pm 2.8 -8.6 0.7 86 0.9 W 50 78 27 42 - - 0.0
25/07:30pm 2.9 -7.2 0.5 84 1.0 W 43 72 23 39 - - 0.0
25/07:00pm 3.1 -6.6 0.5 83 1.1 W 41 69 22 37 - - 0.0
25/06:57pm 3.1 -6.6 0.3 82 1.1 W 41 69 22 37 - - 0.0
25/06:30pm 3.3 -4.7 0.4 81 1.2 W 32 54 17 29 - - 0.0
25/06:00pm 3.7 -3.5 0.6 80 1.3 W 28 50 15 27 - - 0.0
25/05:30pm 3.9 -3.7 0.6 79 1.4 W 30 59 16 32 - - 0.0
25/05:10pm 4.0 -3.2 0.7 79 1.4 W 28 52 15 28 - - 0.0
25/05:00pm 4.1 -2.4 0.6 78 1.4 W 24 37 13 20 - - 0.0
25/04:30pm 4.7 -1.3 0.8 76 1.6 W 22 37 12 20 - - 0.0
25/04:00pm 5.0 -1.8 1.1 76 1.6 WSW 26 44 14 24 - - 0.0
25/03:36pm 4.7 -3.5 0.3 73 1.8 W 33 52 18 28 - - 0.0
25/03:30pm 5.0 -3.0 0.4 72 1.9 W 32 48 17 26 - - 0.0
25/03:00pm 5.3 -2.7 0.3 70 2.1 W 32 52 17 28 - - 0.0
25/02:30pm 4.9 -3.7 0.1 71 2.0 W 35 54 19 29 - - 0.0
25/02:00pm 5.7 -2.5 0.1 67 2.3 W 33 54 18 29 - - 0.0
25/01:30pm 5.2 -3.8 0.0 69 2.1 W 37 63 20 34 - - 0.0
25/01:00pm 5.1 -3.5 0.3 71 2.0 W 35 56 19 30 - - 0.0
25/12:30pm 5.2 -2.0 0.4 71 2.0 W 28 46 15 25 - - 0.0
25/12:06pm 4.8 -3.8 0.2 72 1.9 W 35 56 19 30 - - 0.0
25/12:00pm 4.6 -4.4 0.2 73 1.8 W 37 52 20 28 - - 0.0
25/11:44am 4.9 -4.0 0.7 74 1.7 W 37 56 20 30 - - 0.0
25/11:30am 4.6 -3.9 0.6 75 1.7 W 35 52 19 28 - - 0.0
25/11:08am 3.9 -5.1 0.2 77 1.5 W 37 59 20 32 - - 0.0
25/11:01am 3.8 -4.4 0.3 78 1.4 W 33 56 18 30 - - 0.0
25/11:00am 3.7 -4.5 0.2 78 1.4 W 33 48 18 26 - - 0.0
25/10:44am 3.7 -4.9 0.2 78 1.4 W 35 61 19 33 - - 0.0
25/10:30am 3.4 -5.5 0.6 82 1.1 W 37 52 20 28 - - 0.0
25/10:00am 2.8 -6.2 0.0 82 1.1 W 37 57 20 31 - - 0.0
25/09:35am 2.6 -6.0 0.2 84 1.0 W 35 57 19 31 - - 0.0
25/09:30am 2.6 -5.6 0.3 85 0.9 W 33 48 18 26 - - 0.0
25/09:01am 2.2 -6.0 0.6 89 0.6 W 33 52 18 28 - - 0.0
25/09:00am 2.2 -5.8 0.6 89 0.6 W 32 48 17 26 - - 0.4
25/08:30am 2.2 -5.9 0.7 90 0.6 W 33 61 18 33 - - 0.4
25/08:00am 2.1 -6.5 0.5 89 0.6 W 35 56 19 30 - - 0.4
25/07:30am 2.3 -6.3 0.2 86 0.8 W 35 57 19 31 - - 0.4
25/07:00am 2.3 -5.8 -0.1 84 1.0 W 32 52 17 28 - - 0.4
25/06:59am 2.3 -6.0 0.0 85 0.9 W 33 52 18 28 - - 0.4
25/06:53am 2.2 -6.4 -0.1 85 0.9 W 35 52 19 28 - - 0.4
25/06:46am 2.2 -5.5 -0.1 85 0.9 W 30 50 16 27 - - 0.4
25/06:44am 2.2 -5.5 -0.1 85 0.9 W 30 43 16 23 - - 0.4
25/06:30am 2.1 -6.0 -0.3 84 0.9 W 32 50 17 27 - - 0.4
25/06:10am 2.0 -7.0 -0.2 85 0.9 W 37 59 20 32 - - 0.4
25/06:00am 1.9 -6.2 -0.2 86 0.8 W 32 52 17 28 - - 0.4
25/05:30am 1.7 -7.4 -0.7 84 0.9 W 37 56 20 30 - - 0.4
25/05:08am 1.7 -6.7 -0.9 83 1.0 W 33 54 18 29 - - 0.4
25/05:00am 1.7 -7.1 -0.9 83 1.0 W 35 52 19 28 - - 0.4
25/04:30am 1.6 -6.6 -1.0 83 1.0 W 32 50 17 27 - - 0.4
25/04:00am 1.8 -6.5 -0.6 84 0.9 W 33 52 18 28 - - 0.4
25/03:31am 2.0 -6.3 -0.2 85 0.9 W 33 56 18 30 - - 0.4
25/03:30am 2.0 -6.3 -0.1 86 0.8 WSW 33 54 18 29 - - 0.4
25/03:00am 2.2 -5.8 0.6 89 0.6 W 32 59 17 32 - - 0.4
25/02:35am 2.4 -6.0 1.4 93 0.4 W 35 54 19 29 - - 0.4
25/02:30am 2.6 -6.2 1.4 92 0.5 W 37 52 20 28 - - 0.4
25/02:00am 2.7 -5.1 2.0 95 0.3 W 32 52 17 28 - - 0.4
25/01:33am 2.7 -4.7 1.7 93 0.4 W 30 50 16 27 - - 0.4
25/01:30am 2.6 -4.8 1.6 93 0.4 W 30 46 16 25 - - 0.4
25/01:26am 2.6 -4.9 1.4 92 0.5 W 30 46 16 25 - - 0.4
25/01:14am 2.5 -5.0 1.5 93 0.4 W 30 43 16 23 - - 0.4
25/01:00am 2.4 -4.6 1.7 95 0.3 W 28 46 15 25 - - 0.4
25/12:39am 2.7 -5.6 2.0 95 0.3 W 35 56 19 30 - - 0.4
25/12:30am 2.9 -5.4 2.0 94 0.4 W 35 61 19 33 - - 0.4
25/12:11am 3.1 -3.9 1.8 91 0.5 W 28 54 15 29 - - 0.0
25/12:09am 3.2 -3.8 1.7 90 0.6 W 28 54 15 29 - - 0.0
25/12:08am 3.2 -3.9 1.6 89 0.7 W 28 41 15 22 - - 0.0
25/12:00am 3.5 -3.2 1.2 85 1.0 WNW 26 44 14 24 - - 0.0
 
Date/Time
EST
Temp
°C
App
Temp
°C
Dew
Point
°C
Rel
Hum
%
Delta-T
°C
Wind Press
QNH
hPa
Press
MSL
hPa
Rain since
9am
mm
Dir  Spd
km/h
Gust
km/h
Spd
kts
Gust
kts
24/11:30pm 3.3 -3.1 1.0 85 0.9 W 24 41 13 22 - - 0.0
24/11:00pm 3.3 -3.5 0.7 83 1.1 W 26 39 14 21 - - 0.0
24/10:30pm 3.1 -4.1 0.5 83 1.1 W 28 43 15 23 - - 0.0
24/10:06pm 3.0 -4.7 0.1 81 1.2 W 30 48 16 26 - - 0.0
24/10:00pm 2.8 -5.3 -0.1 81 1.2 W 32 44 17 24 - - 0.0
24/09:47pm 2.9 -4.8 -0.2 80 1.2 W 30 48 16 26 - - 0.0
24/09:30pm 2.7 -5.0 -0.4 80 1.2 W 30 46 16 25 - - 0.0
24/09:26pm 2.7 -4.6 -0.2 81 1.2 W 28 46 15 25 - - 0.0
24/09:00pm 2.3 -4.7 -0.3 83 1.0 W 26 39 14 21 - - 0.0
24/08:43pm 2.4 -5.0 -0.5 81 1.1 W 28 46 15 25 - - 0.0
24/08:30pm 2.5 -4.5 -0.6 80 1.2 W 26 41 14 22 - - 0.0
24/08:00pm 2.5 -3.8 -1.1 77 1.4 W 22 32 12 17 - - 0.0
24/07:30pm 2.5 -4.6 -1.1 77 1.4 W 26 41 14 22 - - 0.0
24/07:10pm 2.6 -4.9 -1.2 76 1.5 W 28 46 15 25 - - 0.0
24/07:00pm 2.5 -4.6 -1.3 76 1.5 W 26 39 14 21 - - 0.0
24/06:30pm 2.6 -4.9 -1.6 74 1.6 W 28 43 15 23 - - 0.0
24/06:00pm 2.4 -4.4 -1.6 75 1.5 W 24 39 13 21 - - 0.0
24/05:30pm 2.3 -3.1 -1.3 77 1.4 WSW 17 24 9 13 - - 0.0
24/05:00pm 2.6 -3.8 -1.7 73 1.6 W 22 32 12 17 - - 0.0
24/04:30pm 3.0 -4.6 -1.9 70 1.9 W 28 43 15 23 - - 0.0
24/04:00pm 3.6 -3.9 -1.7 68 2.0 W 28 43 15 23 - - 0.0
24/03:30pm 3.9 -3.2 -1.5 68 2.1 W 26 44 14 24 - - 0.0
24/03:08pm 2.5 -5.8 -1.8 73 1.6 WSW 32 50 17 27 - - 0.0
24/03:00pm 2.4 -5.6 -2.1 72 1.7 WSW 30 43 16 23 - - 0.0
24/02:40pm 2.7 -5.9 -2.2 70 1.8 W 33 54 18 29 - - 0.0
24/02:30pm 4.0 -3.9 -1.6 67 2.2 W 30 44 16 24 - - 0.0
24/02:00pm 4.0 -2.4 -1.8 66 2.2 W 22 37 12 20 - - 0.0
24/01:35pm 2.4 -5.6 -2.3 71 1.8 WSW 30 56 16 30 - - 0.0
24/01:30pm 2.1 -5.5 -2.0 74 1.5 W 28 41 15 22 - - 0.0
24/01:08pm 2.1 -5.9 -2.2 73 1.6 W 30 48 16 26 - - 0.0
24/01:00pm 2.1 -6.5 -2.4 72 1.7 WSW 33 46 18 25 - - 0.0
24/12:30pm 1.9 -5.7 -2.4 73 1.6 W 28 41 15 22 - - 0.0
24/12:00pm 1.4 -6.3 -2.9 73 1.7 W 28 41 15 22 - - 0.0
24/11:30am 1.5 -5.5 -3.4 70 1.9 W 24 35 13 19 - - 0.0
24/11:00am 1.3 -5.3 -3.4 71 1.8 W 22 30 12 16 - - 0.0
24/10:30am 0.6 -6.4 -3.5 74 1.5 W 24 32 13 17 - - 0.0
24/10:00am 0.4 -5.2 -3.0 78 1.3 W 17 26 9 14 - - 0.0
24/09:30am -0.2 -5.8 -3.2 80 1.1 W 17 24 9 13 - - 0.0
24/09:00am -0.5 -6.5 -3.3 81 1.0 W 19 26 10 14 - - 0.0
24/08:30am -0.8 -6.5 -3.6 81 0.9 W 17 22 9 12 - - 0.0
24/08:00am -1.1 -6.0 -3.8 82 0.9 W 13 19 7 10 - - 0.0

Latest Capital City Observations: Canberra | Sydney | Melbourne | Brisbane | Adelaide | Perth | Hobart | Darwin

Other Formats:

Comma delimited format used in spreadsheet applications
http://www.bom.gov.au/fwo/IDN60901/IDN60901.94743.axf

JavaScript Object Notation format (JSON) in row-major order
http://www.bom.gov.au/fwo/IDN60901/IDN60901.94743.json